createdAt,value
2022-12-29T00:02:01.483Z,2.90
2022-12-29T00:04:28.832Z,4.07
2022-12-29T00:06:56.059Z,2.25
2022-12-29T00:09:23.407Z,3.80
2022-12-29T00:11:51.174Z,2.50
2022-12-29T00:14:36.972Z,2.55
2022-12-29T00:17:04.636Z,2.10
2022-12-29T00:19:50.642Z,2.88
2022-12-29T00:22:36.625Z,4.03
2022-12-29T00:25:23.561Z,3.72
2022-12-29T00:28:09.637Z,3.28
2022-12-29T00:30:56.042Z,2.60
2022-12-29T00:33:46.161Z,3.03
2022-12-29T00:36:13.411Z,2.28
2022-12-29T00:39:03.066Z,2.42
2022-12-29T00:41:49.034Z,2.55
2022-12-29T00:44:16.503Z,3.20
2022-12-29T00:46:45.828Z,2.10
2022-12-29T00:49:32.369Z,2.10
2022-12-29T00:51:59.629Z,2.97
2022-12-29T00:54:26.998Z,2.53
2022-12-29T00:56:54.730Z,2.70
2022-12-29T00:59:22.772Z,2.55
2022-12-29T01:01:50.340Z,2.65
2022-12-29T01:04:17.720Z,3.15
2022-12-29T01:06:45.731Z,2.38
2022-12-29T01:09:32.180Z,1.90
2022-12-29T01:11:59.930Z,5.28
2022-12-29T01:14:27.445Z,2.05
2022-12-29T01:16:55.045Z,2.70
2022-12-29T01:19:22.514Z,3.22
2022-12-29T01:21:50.360Z,2.57
2022-12-29T01:24:18.510Z,2.55
2022-12-29T01:26:47.842Z,2.63
2022-12-29T01:29:17.719Z,2.97
2022-12-29T01:31:46.750Z,2.72
2022-12-29T01:34:14.259Z,2.30
2022-12-29T01:36:41.579Z,2.17
2022-12-29T01:39:08.900Z,2.20
2022-12-29T01:41:36.195Z,2.80
2022-12-29T01:44:03.725Z,2.78
2022-12-29T01:46:34.107Z,2.73
2022-12-29T01:49:01.493Z,2.83
2022-12-29T01:51:29.374Z,2.97
2022-12-29T01:53:57.548Z,2.95
2022-12-29T01:56:24.948Z,2.65
2022-12-29T01:58:57.669Z,2.40
2022-12-29T02:01:25.195Z,2.33
2022-12-29T02:03:52.859Z,3.40
2022-12-29T02:06:23.115Z,2.67
2022-12-29T02:08:51.851Z,2.28
2022-12-29T02:11:20.028Z,2.22
2022-12-29T02:13:47.382Z,2.47
2022-12-29T02:16:19.261Z,2.13
2022-12-29T02:19:22.383Z,3.92
2022-12-29T02:22:03.706Z,3.08
2022-12-29T02:24:49.401Z,2.20
2022-12-29T02:27:33.347Z,2.22
2022-12-29T02:30:19.481Z,2.67
2022-12-29T02:33:01.572Z,3.25
2022-12-29T02:35:36.944Z,3.85
2022-12-29T02:38:15.299Z,2.95
2022-12-29T02:41:06.121Z,2.15
2022-12-29T02:43:40.171Z,2.88
2022-12-29T02:46:10.617Z,3.15
2022-12-29T02:48:56.193Z,2.53
2022-12-29T02:51:27.624Z,3.17
2022-12-29T02:54:14.615Z,1.65
2022-12-29T02:56:42.050Z,1.73
2022-12-29T02:59:09.987Z,3.05
2022-12-29T03:02:06.143Z,3.17
2022-12-29T03:04:36.849Z,1.90
2022-12-29T03:07:11.623Z,1.02
2022-12-29T03:09:47.877Z,3.33
2022-12-29T03:12:15.178Z,3.33
2022-12-29T03:15:20.048Z,1.63
2022-12-29T03:17:56.911Z,2.00
2022-12-29T03:20:27.597Z,2.10
2022-12-29T03:22:59.231Z,3.05
2022-12-29T03:25:37.784Z,3.33
2022-12-29T03:28:10.153Z,1.70
2022-12-29T03:30:43.369Z,4.37
2022-12-29T03:33:14.244Z,2.67
2022-12-29T03:35:43.644Z,4.05
2022-12-29T03:38:15.645Z,3.15
2022-12-29T03:40:45.614Z,3.35
2022-12-29T03:43:13.691Z,2.20
2022-12-29T03:45:41.602Z,2.08
2022-12-29T03:48:08.988Z,3.20
2022-12-29T03:50:39.004Z,2.42
2022-12-29T03:53:06.458Z,4.40
2022-12-29T03:55:34.922Z,2.35
2022-12-29T03:58:02.384Z,4.30
2022-12-29T04:00:45.088Z,4.55
2022-12-29T04:03:12.486Z,2.85
2022-12-29T04:05:39.928Z,3.22
2022-12-29T04:08:07.332Z,1.87
2022-12-29T04:10:34.858Z,4.28
2022-12-29T04:13:04.983Z,2.53
2022-12-29T04:15:32.341Z,2.75
2022-12-29T04:18:00.298Z,4.28
2022-12-29T04:20:46.617Z,3.57
2022-12-29T04:23:14.038Z,4.40
2022-12-29T04:25:41.786Z,2.75
2022-12-29T04:28:10.366Z,5.20
2022-12-29T04:30:55.458Z,4.57
2022-12-29T04:33:34.835Z,3.37
2022-12-29T04:36:03.013Z,4.60
2022-12-29T04:38:30.317Z,3.55
2022-12-29T04:41:00.922Z,4.05
2022-12-29T04:43:29.019Z,5.47
2022-12-29T04:46:19.676Z,4.10
2022-12-29T04:48:55.191Z,2.35
2022-12-29T04:51:42.459Z,6.22
2022-12-29T04:54:12.034Z,1.98
2022-12-29T04:56:39.486Z,4.80
2022-12-29T04:59:07.483Z,5.77
2022-12-29T05:01:35.300Z,10.50
2022-12-29T05:04:02.931Z,7.15
2022-12-29T05:06:30.412Z,7.85
2022-12-29T05:08:57.703Z,9.90
2022-12-29T05:11:25.536Z,5.03
2022-12-29T05:13:54.439Z,6.05
2022-12-29T05:16:22.684Z,5.93
2022-12-29T05:18:50.171Z,5.38
2022-12-29T05:21:17.569Z,9.02
2022-12-29T05:23:45.611Z,8.50
2022-12-29T05:26:12.986Z,7.43
2022-12-29T05:28:54.384Z,4.70
2022-12-29T05:31:23.285Z,7.70
2022-12-29T05:33:50.819Z,9.43
2022-12-29T05:36:18.869Z,8.85
2022-12-29T05:38:50.638Z,7.30
2022-12-29T05:41:18.779Z,5.95
2022-12-29T05:44:01.503Z,9.32
2022-12-29T05:46:28.839Z,12.38
2022-12-29T05:49:16.474Z,6.00
2022-12-29T05:51:56.498Z,8.13
2022-12-29T05:54:23.810Z,7.68
2022-12-29T05:56:52.058Z,6.88
2022-12-29T05:59:19.445Z,4.82
2022-12-29T06:01:48.043Z,6.43
2022-12-29T06:04:15.467Z,9.48
2022-12-29T06:06:43.428Z,7.10
2022-12-29T06:09:18.492Z,7.82
2022-12-29T06:11:45.792Z,8.55
2022-12-29T06:14:13.199Z,8.00
2022-12-29T06:16:40.545Z,6.00
2022-12-29T06:19:11.601Z,11.85
2022-12-29T06:21:39.037Z,9.50
2022-12-29T06:24:06.692Z,5.18
2022-12-29T06:26:35.721Z,5.95
2022-12-29T06:29:03.890Z,9.05
2022-12-29T06:31:31.343Z,7.95
2022-12-29T06:34:01.275Z,11.73
2022-12-29T06:36:30.883Z,5.18
2022-12-29T06:38:58.197Z,7.55
2022-12-29T06:41:31.788Z,9.80
2022-12-29T06:44:31.755Z,8.10
2022-12-29T06:47:02.341Z,5.43
2022-12-29T06:49:29.643Z,7.05
2022-12-29T06:51:59.206Z,6.22
2022-12-29T06:54:26.474Z,6.22
2022-12-29T06:56:54.358Z,6.63
2022-12-29T06:59:21.770Z,9.68
2022-12-29T07:01:49.353Z,8.88
2022-12-29T07:04:16.735Z,8.98
2022-12-29T07:06:44.945Z,7.43
2022-12-29T07:09:12.391Z,9.38
2022-12-29T07:11:39.663Z,6.00
2022-12-29T07:21:11.450Z,6.20
2022-12-29T07:23:38.974Z,5.93
2022-12-29T07:26:08.589Z,6.53
2022-12-29T07:28:36.857Z,5.45
2022-12-29T07:31:04.573Z,7.07
2022-12-29T07:33:32.505Z,7.68
2022-12-29T07:36:00.669Z,7.00
2022-12-29T07:38:28.286Z,7.20
2022-12-29T07:40:59.242Z,3.70
2022-12-29T07:43:26.825Z,3.70
2022-12-29T07:46:56.558Z,7.05
2022-12-29T07:49:01.512Z,4.05
2022-12-29T07:51:28.956Z,8.70
2022-12-29T07:53:56.762Z,10.88
2022-12-29T07:56:26.402Z,8.43
2022-12-29T07:58:54.113Z,5.18
2022-12-29T08:01:22.712Z,5.57
2022-12-29T08:03:56.889Z,12.75
2022-12-29T08:06:24.763Z,8.45
2022-12-29T08:08:52.463Z,9.45
2022-12-29T08:11:19.873Z,8.80
2022-12-29T08:13:47.401Z,10.05
2022-12-29T08:16:17.256Z,6.18
2022-12-29T08:18:47.242Z,8.25
2022-12-29T08:21:15.010Z,8.77
2022-12-29T08:23:42.469Z,10.85
2022-12-29T08:26:10.218Z,6.85
2022-12-29T08:28:37.689Z,6.72
2022-12-29T08:31:05.204Z,12.38
2022-12-29T08:33:32.722Z,13.43
2022-12-29T08:36:04.115Z,10.43
2022-12-29T08:38:31.960Z,9.02
2022-12-29T08:41:00.695Z,12.20
2022-12-29T08:43:28.765Z,13.70
2022-12-29T08:45:57.422Z,7.22
2022-12-29T08:48:24.835Z,11.85
2022-12-29T08:50:52.664Z,5.70
2022-12-29T08:53:20.585Z,8.95
2022-12-29T08:55:48.351Z,5.68
2022-12-29T08:58:17.890Z,11.65
2022-12-29T09:00:45.813Z,5.22
2022-12-29T09:03:13.531Z,8.82
2022-12-29T09:05:41.217Z,10.15
2022-12-29T09:08:08.979Z,6.85
2022-12-29T09:10:36.547Z,8.05
2022-12-29T09:13:04.119Z,9.95
2022-12-29T09:15:34.056Z,8.20
2022-12-29T09:18:02.104Z,5.95
2022-12-29T09:20:29.669Z,7.57
2022-12-29T09:22:57.336Z,10.05
2022-12-29T09:25:25.712Z,8.70
2022-12-29T09:27:54.390Z,5.28
2022-12-29T09:30:23.203Z,4.72
2022-12-29T09:32:55.190Z,4.80
2022-12-29T09:35:23.192Z,10.73
2022-12-29T09:37:52.184Z,6.10
2022-12-29T09:40:27.946Z,5.70
2022-12-29T09:43:04.931Z,3.80
2022-12-29T09:45:42.561Z,7.68
2022-12-29T09:48:16.171Z,6.15
2022-12-29T09:50:45.827Z,6.25
2022-12-29T09:53:27.677Z,4.85
2022-12-29T09:55:57.333Z,4.55
2022-12-29T09:58:28.064Z,5.10
2022-12-29T10:01:03.455Z,5.20
2022-12-29T10:03:38.496Z,7.72
2022-12-29T10:06:05.900Z,5.32
2022-12-29T10:08:36.401Z,7.18
2022-12-29T10:11:28.068Z,6.15
2022-12-29T10:14:10.933Z,4.03
2022-12-29T10:17:00.218Z,5.13
2022-12-29T10:19:35.284Z,5.15
2022-12-29T10:22:19.913Z,5.53
2022-12-29T10:24:48.909Z,7.72
2022-12-29T10:27:17.931Z,8.35
2022-12-29T10:29:50.191Z,7.63
2022-12-29T10:32:27.129Z,14.77
2022-12-29T10:34:57.804Z,9.88
2022-12-29T10:37:34.809Z,13.55
2022-12-29T10:40:04.164Z,6.90
2022-12-29T10:42:47.060Z,12.27
2022-12-29T10:45:16.711Z,9.13
2022-12-29T10:47:52.041Z,13.65
2022-12-29T10:50:19.728Z,10.50
2022-12-29T10:52:48.274Z,11.38
2022-12-29T10:55:19.368Z,11.68
2022-12-29T10:57:47.345Z,7.95
2022-12-29T11:00:17.560Z,8.90
2022-12-29T11:02:52.346Z,13.07
2022-12-29T11:05:43.300Z,17.13
2022-12-29T11:08:13.092Z,10.20
2022-12-29T11:10:42.323Z,10.00
2022-12-29T11:13:20.380Z,10.15
2022-12-29T11:15:49.534Z,11.90
2022-12-29T11:18:21.952Z,13.33
2022-12-29T11:20:51.308Z,9.77
2022-12-29T11:23:34.334Z,9.15
2022-12-29T11:26:20.372Z,10.40
2022-12-29T11:28:50.133Z,10.98
2022-12-29T11:31:18.829Z,12.93
2022-12-29T11:33:46.688Z,15.75
2022-12-29T11:36:16.945Z,12.77
2022-12-29T11:38:47.882Z,8.48
2022-12-29T11:41:20.724Z,14.60
2022-12-29T11:43:48.872Z,17.33
2022-12-29T11:46:22.217Z,13.55
2022-12-29T11:48:49.937Z,12.32
2022-12-29T11:51:29.016Z,11.48
2022-12-29T11:54:01.721Z,16.42
2022-12-29T11:56:40.389Z,9.50
2022-12-29T11:59:27.964Z,19.65
2022-12-29T12:01:55.908Z,13.50
2022-12-29T12:04:25.209Z,14.50
2022-12-29T12:07:01.073Z,15.73
2022-12-29T12:09:34.388Z,13.83
2022-12-29T12:12:03.399Z,14.25
2022-12-29T12:14:33.907Z,10.73
2022-12-29T12:17:20.744Z,16.58
2022-12-29T12:19:55.285Z,16.20
2022-12-29T12:22:30.561Z,17.52
2022-12-29T12:25:19.055Z,24.80
2022-12-29T12:27:59.231Z,9.35
2022-12-29T12:30:28.762Z,18.15
2022-12-29T12:33:03.289Z,13.88
2022-12-29T12:35:46.079Z,13.33
2022-12-29T12:38:27.077Z,15.85
2022-12-29T12:41:10.512Z,13.93
2022-12-29T12:43:42.737Z,8.95
2022-12-29T12:46:21.955Z,12.82
2022-12-29T12:49:01.916Z,11.90
2022-12-29T12:51:32.601Z,13.27
2022-12-29T12:54:03.458Z,12.75
2022-12-29T12:56:34.032Z,11.68
2022-12-29T12:59:20.294Z,12.40
2022-12-29T13:01:54.861Z,12.43
2022-12-29T13:04:25.635Z,15.25
2022-12-29T13:06:56.407Z,10.52
2022-12-29T13:09:36.621Z,12.25
2022-12-29T13:12:22.862Z,10.27
2022-12-29T13:14:50.398Z,12.43
2022-12-29T13:17:25.341Z,15.20
2022-12-29T13:19:57.944Z,12.93
2022-12-29T13:22:38.888Z,17.90
2022-12-29T13:25:25.372Z,13.18
2022-12-29T13:28:08.405Z,12.13
2022-12-29T13:30:54.026Z,14.88
2022-12-29T13:33:26.356Z,13.07
2022-12-29T13:35:53.734Z,16.02
2022-12-29T13:38:39.811Z,10.20
2022-12-29T13:41:12.913Z,10.20
2022-12-29T13:43:42.498Z,12.65
2022-12-29T13:46:12.150Z,10.70
2022-12-29T13:48:42.504Z,8.00
2022-12-29T13:51:11.095Z,12.38
2022-12-29T13:53:54.033Z,11.68
2022-12-29T13:56:33.777Z,9.07
2022-12-29T13:59:19.286Z,6.90
2022-12-29T14:01:57.967Z,8.05
2022-12-29T14:04:27.545Z,6.88
2022-12-29T14:07:01.067Z,3.33
2022-12-29T14:09:35.037Z,5.15
2022-12-29T14:12:03.050Z,6.03
2022-12-29T14:14:32.170Z,5.05
2022-12-29T14:17:19.909Z,5.40
2022-12-29T14:19:47.672Z,3.88
2022-12-29T14:22:15.343Z,5.18
2022-12-29T14:24:47.387Z,1.65
2022-12-29T14:27:18.346Z,5.47
2022-12-29T14:29:47.188Z,4.88
2022-12-29T14:32:27.162Z,4.03
2022-12-29T14:34:58.653Z,3.47
2022-12-29T14:37:28.293Z,5.57
2022-12-29T14:40:17.010Z,4.93
2022-12-29T14:42:44.505Z,4.72
2022-12-29T14:45:15.281Z,5.07
2022-12-29T14:47:44.691Z,4.32
2022-12-29T14:50:12.119Z,7.20
2022-12-29T14:52:45.839Z,4.88
2022-12-29T14:55:19.521Z,9.75
2022-12-29T14:57:50.403Z,5.30
2022-12-29T15:00:26.789Z,6.13
2022-12-29T15:03:03.221Z,5.97
2022-12-29T15:05:36.731Z,12.38
2022-12-29T15:08:05.363Z,7.88
2022-12-29T15:10:36.761Z,8.27
2022-12-29T15:13:05.965Z,4.03
2022-12-29T15:15:38.405Z,7.90
2022-12-29T15:18:24.945Z,10.73
2022-12-29T15:20:57.753Z,6.90
2022-12-29T15:23:28.948Z,7.30
2022-12-29T15:26:01.402Z,10.85
2022-12-29T15:28:30.246Z,7.72
2022-12-29T15:31:03.475Z,8.20
2022-12-29T15:33:31.889Z,5.97
2022-12-29T15:36:05.042Z,4.68
2022-12-29T15:38:39.994Z,6.10
2022-12-29T15:41:10.115Z,10.00
2022-12-29T15:43:50.305Z,35.03
2022-12-29T15:46:20.954Z,5.13
2022-12-29T15:48:48.512Z,7.60
2022-12-29T15:51:20.057Z,6.18
2022-12-29T15:53:52.269Z,5.93
2022-12-29T15:56:22.857Z,5.22
2022-12-29T15:58:52.313Z,7.20
2022-12-29T16:01:19.886Z,9.48
2022-12-29T16:03:47.986Z,7.38
2022-12-29T16:06:29.875Z,6.53
2022-12-29T16:09:00.374Z,8.40
2022-12-29T16:11:29.896Z,9.07
2022-12-29T16:13:58.197Z,5.40
2022-12-29T16:16:30.504Z,8.07
2022-12-29T16:18:58.620Z,6.20
2022-12-29T16:21:29.378Z,5.32
2022-12-29T16:23:59.831Z,4.70
2022-12-29T16:26:27.481Z,7.97
2022-12-29T16:29:00.046Z,4.60
2022-12-29T16:31:36.236Z,6.47
2022-12-29T16:34:22.857Z,6.88
2022-12-29T16:36:57.879Z,6.05
2022-12-29T16:39:34.458Z,10.02
2022-12-29T16:42:02.624Z,6.97
2022-12-29T16:44:31.744Z,5.03
2022-12-29T16:47:02.371Z,5.90
2022-12-29T16:49:31.037Z,5.00
2022-12-29T16:51:58.828Z,9.55
2022-12-29T16:54:30.649Z,6.05
2022-12-29T16:56:59.306Z,4.50
2022-12-29T16:59:42.527Z,4.53
2022-12-29T17:02:15.244Z,13.02
2022-12-29T17:04:43.046Z,11.50
2022-12-29T17:07:20.439Z,7.75
2022-12-29T17:09:48.324Z,9.60
2022-12-29T17:12:18.648Z,4.05
2022-12-29T17:14:53.140Z,7.30
2022-12-29T17:17:50.151Z,6.90
2022-12-29T17:20:25.932Z,8.18
2022-12-29T17:22:54.717Z,8.35
2022-12-29T17:25:24.815Z,6.00
2022-12-29T17:27:56.409Z,9.57
2022-12-29T17:30:31.152Z,9.23
2022-12-29T17:33:04.947Z,7.07
2022-12-29T17:35:32.528Z,9.70
2022-12-29T17:38:00.459Z,5.47
2022-12-29T17:40:29.952Z,7.95
2022-12-29T17:42:58.736Z,6.72
2022-12-29T17:45:30.699Z,5.15
2022-12-29T17:48:02.073Z,8.40
2022-12-29T17:50:30.855Z,5.05
2022-12-29T17:53:03.965Z,6.13
2022-12-29T17:55:37.627Z,6.20
2022-12-29T17:58:19.672Z,5.63
2022-12-29T18:00:48.457Z,10.25
2022-12-29T18:03:20.589Z,9.68
2022-12-29T18:05:50.523Z,8.07
2022-12-29T18:08:18.106Z,6.80
2022-12-29T18:10:46.184Z,4.82
2022-12-29T18:13:21.229Z,9.57
2022-12-29T18:15:49.093Z,6.43
2022-12-29T18:18:21.603Z,9.85
2022-12-29T18:20:50.257Z,5.65
2022-12-29T18:23:22.225Z,6.95
2022-12-29T18:25:56.670Z,9.32
2022-12-29T18:28:26.218Z,10.00
2022-12-29T18:30:54.209Z,8.05
2022-12-29T18:33:26.058Z,6.63
2022-12-29T18:35:56.750Z,5.55
2022-12-29T18:38:26.684Z,11.50
2022-12-29T18:40:54.951Z,9.10
2022-12-29T18:43:23.183Z,8.73
2022-12-29T18:45:50.775Z,11.27
2022-12-29T18:48:18.935Z,8.73
2022-12-29T18:50:46.933Z,11.18
2022-12-29T18:53:17.137Z,17.60
2022-12-29T18:55:44.621Z,6.78
2022-12-29T18:58:12.185Z,9.63
2022-12-29T19:00:40.222Z,7.50
2022-12-29T19:03:07.783Z,10.40
2022-12-29T19:05:39.970Z,13.63
2022-12-29T19:08:08.374Z,14.95
2022-12-29T19:10:36.602Z,13.93
2022-12-29T19:13:04.313Z,16.17
2022-12-29T19:15:33.187Z,9.93
2022-12-29T19:18:41.795Z,13.88
2022-12-29T19:20:51.173Z,8.10
2022-12-29T19:23:20.336Z,12.70
2022-12-29T19:25:48.274Z,17.55
2022-12-29T19:28:21.059Z,6.55
2022-12-29T19:30:52.357Z,12.60
2022-12-29T19:33:21.940Z,14.35
2022-12-29T19:35:49.645Z,14.18
2022-12-29T19:38:17.130Z,15.57
2022-12-29T19:40:45.262Z,11.13
2022-12-29T19:43:13.377Z,10.27
2022-12-29T19:45:41.594Z,12.30
2022-12-29T19:48:10.163Z,18.67
2022-12-29T19:50:37.563Z,18.38
2022-12-29T19:53:05.767Z,10.15
2022-12-29T19:55:33.447Z,12.18
2022-12-29T19:58:00.901Z,17.85
2022-12-29T20:00:28.360Z,15.05
2022-12-29T20:02:56.293Z,17.48
2022-12-29T20:05:24.013Z,13.82
2022-12-29T20:07:54.741Z,15.18
2022-12-29T20:10:22.133Z,14.05
2022-12-29T20:12:49.796Z,12.70
2022-12-29T20:15:17.208Z,17.65
2022-12-29T20:18:12.490Z,14.30
2022-12-29T20:20:34.869Z,8.55
2022-12-29T20:23:04.251Z,15.68
2022-12-29T20:25:44.648Z,17.92
2022-12-29T20:28:12.514Z,8.40
2022-12-29T20:30:39.963Z,14.07
2022-12-29T20:33:08.544Z,17.88
2022-12-29T20:35:36.385Z,9.52
2022-12-29T20:38:04.213Z,13.98
2022-12-29T20:40:31.742Z,13.93
2022-12-29T20:42:59.398Z,13.18
2022-12-29T20:45:26.970Z,13.75
2022-12-29T20:47:54.865Z,11.25
2022-12-29T20:50:22.342Z,16.83
2022-12-29T20:52:49.796Z,17.65
2022-12-29T20:55:17.629Z,12.82
2022-12-29T20:58:22.107Z,11.05
2022-12-29T21:00:33.542Z,15.32
2022-12-29T21:03:01.725Z,8.50
2022-12-29T21:05:30.198Z,14.13
2022-12-29T21:07:59.708Z,12.57
2022-12-29T21:10:27.249Z,15.77
2022-12-29T21:12:55.113Z,9.90
2022-12-29T21:15:22.798Z,13.90
2022-12-29T21:17:50.143Z,15.07
2022-12-29T21:20:20.740Z,17.92
2022-12-29T21:22:48.642Z,7.82
2022-12-29T21:25:16.599Z,11.45
2022-12-29T21:27:46.962Z,15.18
2022-12-29T21:30:17.212Z,14.95
2022-12-29T21:32:44.877Z,11.90
2022-12-29T21:35:15.972Z,13.00
2022-12-29T21:37:44.210Z,16.92
2022-12-29T21:40:12.243Z,12.88
2022-12-29T21:42:39.946Z,10.57
2022-12-29T21:45:26.158Z,10.98
2022-12-29T21:48:25.396Z,11.50
2022-12-29T21:51:16.114Z,12.13
2022-12-29T21:53:45.869Z,14.48
2022-12-29T21:56:22.309Z,15.05
2022-12-29T21:59:09.369Z,8.63
2022-12-29T22:01:56.988Z,11.85
2022-12-29T22:04:44.577Z,13.25
2022-12-29T22:07:33.064Z,15.15
2022-12-29T22:10:19.060Z,11.50
2022-12-29T22:13:03.152Z,10.05
2022-12-29T22:15:32.552Z,10.95
2022-12-29T22:18:01.382Z,15.13
2022-12-29T22:20:31.627Z,11.18
2022-12-29T22:22:59.092Z,11.13
2022-12-29T22:25:26.670Z,10.10
2022-12-29T22:27:58.916Z,15.95
2022-12-29T22:30:28.100Z,8.73
2022-12-29T22:32:56.639Z,12.65
2022-12-29T22:35:25.237Z,11.10
2022-12-29T22:37:55.190Z,12.73
2022-12-29T22:40:23.234Z,15.23
2022-12-29T22:42:50.682Z,11.98
2022-12-29T22:45:18.194Z,12.40
2022-12-29T22:47:45.584Z,8.30
2022-12-29T22:50:13.243Z,13.70
2022-12-29T22:52:40.767Z,13.98
2022-12-29T22:55:08.806Z,11.02
2022-12-29T22:57:36.967Z,11.00
2022-12-29T23:00:08.370Z,11.02
2022-12-29T23:02:36.008Z,12.43
2022-12-29T23:05:04.979Z,13.02
2022-12-29T23:07:33.977Z,13.95
2022-12-29T23:10:01.534Z,12.40
2022-12-29T23:12:33.597Z,6.45
2022-12-29T23:15:01.412Z,14.88
2022-12-29T23:17:28.997Z,9.57
2022-12-29T23:19:56.454Z,14.95
2022-12-29T23:22:25.102Z,13.80
2022-12-29T23:24:52.578Z,14.32
2022-12-29T23:27:20.129Z,13.43
2022-12-29T23:29:49.826Z,10.07
2022-12-29T23:32:17.436Z,9.30
2022-12-29T23:34:44.942Z,7.68
2022-12-29T23:37:12.293Z,11.75
2022-12-29T23:39:39.894Z,16.30
2022-12-29T23:42:07.539Z,5.20
2022-12-29T23:44:35.188Z,10.07
2022-12-29T23:47:02.898Z,15.07
2022-12-29T23:49:30.511Z,11.00
2022-12-29T23:51:58.201Z,11.80
2022-12-29T23:54:25.834Z,9.93
2022-12-29T23:56:53.398Z,12.65
2022-12-29T23:59:21.292Z,13.10
